Airport View

Enter AWOS ICAO identifier for current METAR.

ex. KFNL

KMOP 101435Z AUTO 21006KT 10SM CLR 28/21 A2995 RMK AO2 T02840207

10 Aug 2020 14:57

Frequency: 133.025

Phone: 989-773-2885

Other Area AWOS: KAMN - KIKW - KMBS - KRQB

TAF KMBS 101135Z 1012/1112 21008KT P6SM SCT040 BKN250 FM101900 20012G20KT P6SM BKN050 PROB30 1100/1104 3SM TSRA BR BKN040CB FM110400 27006KT P6SM BKN050 FM110900 30005KT 5SM BR BKN025